Time;durP1;ratioP1;P1;durP2;ratioP2;P2;SDS_P1;SDS_P2;PMS_P1;PMS_P2;Temp;Humidity;BMP_temperature;BMP_pressure;BME280_temperature;BME280_humidity;BME280_pressure;Samples;Min_cycle;Max_cycle;Signal;HPM_P1;HPM_P2
2023/12/15 00:02:23;;;;;;;55.00;27.08;;;231.20;2252.80;;;;;;5062903;28;20402;-72
2023/12/15 00:04:48;;;;;;;;;;;231.20;2252.80;;;;;;5066053;28;20383;-72
2023/12/15 00:07:14;;;;;;;44.60;25.08;;;231.20;2252.80;;;;;;5075635;28;20106;-72
2023/12/15 00:09:40;;;;;;;52.05;26.02;;;231.20;2252.80;;;;;;5063576;28;20036;-72
2023/12/15 00:12:05;;;;;;;57.30;30.10;;;231.10;2252.80;;;;;;5064577;28;20029;-72
2023/12/15 00:14:31;;;;;;;;;;;231.10;2252.80;;;;;;5063937;28;20059;-72
2023/12/15 00:16:57;;;;;;;56.25;29.58;;;231.20;2252.80;;;;;;5064175;28;19908;-72
2023/12/15 00:19:22;;;;;;;50.85;27.58;;;231.10;2252.80;;;;;;5073544;28;20492;-72
2023/12/15 00:21:48;;;;;;;50.35;27.48;;;231.20;2252.80;;;;;;5063043;28;20105;-72
2023/12/15 00:24:14;;;;;;;;;;;231.00;2252.80;;;;;;5058293;28;20525;-72
2023/12/15 00:26:39;;;;;;;52.72;27.50;;;231.10;2252.80;;;;;;5067573;28;19916;-73
2023/12/15 00:29:05;;;;;;;59.20;30.05;;;231.10;2252.80;;;;;;5064485;28;20025;-73
2023/12/15 00:31:31;;;;;;;;;;;231.20;2252.80;;;;;;5065491;28;20053;-73
2023/12/15 00:33:57;;;;;;;56.28;27.30;;;231.20;2252.80;;;;;;5073769;28;19916;-72
2023/12/15 00:36:22;;;;;;;63.13;30.42;;;230.90;2252.80;;;;;;5058062;28;20130;-72
2023/12/15 00:38:48;;;;;;;59.85;29.08;;;231.20;2252.80;;;;;;5067193;28;20016;-73
2023/12/15 00:41:14;;;;;;;61.80;30.42;;;231.20;2252.80;;;;;;5067024;28;20024;-72
2023/12/15 00:43:39;;;;;;;54.40;28.83;;;231.20;2252.80;;;;;;5063410;28;20024;-72
2023/12/15 00:46:05;;;;;;;60.25;28.40;;;231.20;2252.80;;;;;;5082515;28;20115;-72
2023/12/15 00:48:31;;;;;;;;;;;231.20;2252.80;;;;;;5072257;28;20032;-73
2023/12/15 00:50:57;;;;;;;55.75;26.08;;;231.30;2252.80;;;;;;5072708;28;19916;-72
2023/12/15 00:53:24;;;;;;;57.53;26.38;;;231.20;2252.80;;;;;;5073763;28;20080;-73
2023/12/15 00:55:49;;;;;;;52.80;27.33;;;231.30;2252.80;;;;;;5065603;28;20028;-72
2023/12/15 00:58:15;;;;;;;63.50;28.98;;;231.30;2252.80;;;;;;5072249;28;20377;-72
2023/12/15 01:00:41;;;;;;;58.35;28.95;;;231.30;2252.80;;;;;;5063762;28;20551;-73
2023/12/15 01:03:07;;;;;;;;;;;231.30;2252.80;;;;;;5067776;28;20420;-74
2023/12/15 01:05:32;;;;;;;54.08;27.17;;;231.30;2252.80;;;;;;5063339;28;19943;-72
2023/12/15 01:07:58;;;;;;;51.33;25.45;;;231.30;2252.80;;;;;;5073507;28;20020;-72
2023/12/15 01:10:24;;;;;;;;;;;231.30;2252.80;;;;;;5065100;28;20585;-72
2023/12/15 01:12:49;;;;;;;49.00;24.73;;;231.30;2252.80;;;;;;5078463;28;20285;-72
2023/12/15 01:15:15;;;;;;;49.95;24.85;;;231.20;2252.80;;;;;;5059798;28;20028;-71
2023/12/15 01:17:41;;;;;;;;;;;231.30;2252.80;;;;;;5065113;28;20035;-72
2023/12/15 01:20:10;;;;;;;57.30;26.80;;;231.30;2252.80;;;;;;5061007;28;19909;-72
2023/12/15 01:22:36;;;;;;;56.47;26.80;;;231.20;2252.80;;;;;;5064322;28;20039;-72
2023/12/15 01:25:01;;;;;;;52.28;25.52;;;231.30;2252.80;;;;;;5062917;28;20041;-72
2023/12/15 01:27:27;;;;;;;53.10;26.17;;;231.20;2252.80;;;;;;5084593;28;20027;-72
2023/12/15 01:29:53;;;;;;;51.08;25.80;;;231.20;2252.80;;;;;;5071177;28;20036;-72
2023/12/15 01:32:18;;;;;;;51.92;25.05;;;231.20;2252.80;;;;;;5074445;28;20070;-72
2023/12/15 01:34:44;;;;;;;53.10;26.55;;;231.30;2252.80;;;;;;5068513;28;20044;-73
2023/12/15 01:37:10;;;;;;;;;;;231.20;2252.80;;;;;;5062967;28;20033;-72
2023/12/15 01:39:35;;;;;;;50.17;24.65;;;231.30;2252.80;;;;;;5074738;28;19908;-74
2023/12/15 01:42:01;;;;;;;47.45;23.63;;;231.20;2252.80;;;;;;5061149;28;20063;-72
2023/12/15 01:44:27;;;;;;;46.92;23.33;;;231.20;2252.80;;;;;;5071989;28;20032;-72
2023/12/15 01:46:52;;;;;;;;;;;231.20;2252.80;;;;;;5074746;28;20032;-72
2023/12/15 01:49:18;;;;;;;49.88;24.20;;;231.20;2252.80;;;;;;5074622;28;19908;-72
2023/12/15 01:51:44;;;;;;;45.00;24.77;;;231.10;2252.80;;;;;;5067681;28;20490;-72
2023/12/15 01:54:10;;;;;;;43.15;22.50;;;231.00;2252.80;;;;;;5073377;28;20032;-72
2023/12/15 01:56:36;;;;;;;43.17;21.90;;;231.00;2252.80;;;;;;5075093;28;20033;-72
2023/12/15 01:59:02;;;;;;;;;;;231.00;2252.80;;;;;;5070170;28;20036;-72
2023/12/15 02:01:27;;;;;;;41.35;20.52;;;231.00;2252.80;;;;;;5073594;28;20281;-72
2023/12/15 02:03:53;;;;;;;;;;;230.90;2252.80;;;;;;5064571;28;20040;-72
2023/12/15 02:06:19;;;;;;;41.05;21.08;;;231.00;2252.80;;;;;;5071977;28;19965;-73
2023/12/15 02:08:45;;;;;;;44.38;22.17;;;230.90;2252.80;;;;;;5072677;28;20039;-72
2023/12/15 02:11:11;;;;;;;44.10;24.17;;;230.90;2252.80;;;;;;5064690;28;20389;-73
2023/12/15 02:13:36;;;;;;;42.22;21.67;;;230.90;2252.80;;;;;;5052649;28;20025;-72
2023/12/15 02:16:02;;;;;;;;;;;231.00;2252.80;;;;;;5053169;28;20438;-72
2023/12/15 02:18:28;;;;;;;44.00;22.27;;;231.00;2252.80;;;;;;5052708;28;20258;-72
2023/12/15 02:20:53;;;;;;;;;;;230.90;2252.80;;;;;;5072101;28;20018;-72
2023/12/15 02:23:19;;;;;;;38.13;19.88;;;230.90;2252.80;;;;;;5074851;28;19908;-72
2023/12/15 02:25:45;;;;;;;43.05;20.58;;;230.90;2252.80;;;;;;5076216;28;20029;-72
2023/12/15 02:28:10;;;;;;;;;;;231.00;2252.80;;;;;;5076590;28;20016;-72
2023/12/15 02:30:36;;;;;;;41.25;21.85;;;230.90;2252.80;;;;;;5076348;28;19992;-73
2023/12/15 02:33:02;;;;;;;46.08;23.35;;;230.90;2252.80;;;;;;5075916;28;20044;-73
2023/12/15 02:35:27;;;;;;;;;;;230.80;2252.80;;;;;;5076587;28;20074;-72
2023/12/15 02:37:53;;;;;;;43.72;20.70;;;230.60;2252.80;;;;;;5076266;28;20383;-72
2023/12/15 02:40:19;;;;;;;42.17;21.67;;;230.60;2252.80;;;;;;5068756;28;20190;-73
2023/12/15 02:42:45;;;;;;;46.83;23.25;;;230.60;2252.80;;;;;;5073105;28;20016;-72
2023/12/15 02:45:10;;;;;;;40.75;22.95;;;230.70;2252.80;;;;;;5076019;28;20377;-73
2023/12/15 02:47:36;;;;;;;;;;;230.70;2252.80;;;;;;5076316;28;20099;-72
2023/12/15 02:50:02;;;;;;;46.42;22.60;;;230.90;2252.80;;;;;;5075987;28;19904;-73
2023/12/15 02:52:27;;;;;;;;;;;230.80;2252.80;;;;;;5076504;28;20466;-73
2023/12/15 02:54:53;;;;;;;40.95;22.08;;;230.70;2252.80;;;;;;5075859;28;19911;-73
2023/12/15 02:57:19;;;;;;;;;;;230.80;2252.80;;;;;;5075337;28;20104;-73
2023/12/15 02:59:44;;;;;;;43.35;22.02;;;230.80;2252.80;;;;;;5075817;28;19904;-73
2023/12/15 03:02:10;;;;;;;43.95;22.13;;;230.90;2252.80;;;;;;5079228;28;20095;-73
2023/12/15 03:04:36;;;;;;;38.13;21.52;;;230.90;2252.80;;;;;;5085104;28;20059;-73
2023/12/15 03:07:01;;;;;;;;;;;231.00;2252.80;;;;;;5074750;28;20039;-73
2023/12/15 03:09:27;;;;;;;46.03;23.20;;;230.90;2252.80;;;;;;5075659;28;19911;-73
2023/12/15 03:11:53;;;;;;;46.58;21.85;;;230.90;2252.80;;;;;;5075686;28;20487;-74
2023/12/15 03:14:19;;;;;;;;;;;230.80;2252.80;;;;;;5076055;28;20023;-74
2023/12/15 03:16:44;;;;;;;47.28;21.83;;;230.70;2252.80;;;;;;5075350;28;19911;-74
2023/12/15 03:19:10;;;;;;;;;;;230.70;2252.80;;;;;;5075828;28;20024;-73
2023/12/15 03:21:36;;;;;;;40.78;20.92;;;230.70;2252.80;;;;;;5075394;28;19904;-73
2023/12/15 03:24:01;;;;;;;42.03;22.50;;;230.60;2252.80;;;;;;5075286;28;20052;-73
2023/12/15 03:26:27;;;;;;;48.67;22.73;;;230.70;2252.80;;;;;;5075247;28;20063;-73
2023/12/15 03:28:53;;;;;;;41.20;21.15;;;230.70;2252.80;;;;;;5075437;28;20025;-74
2023/12/15 03:31:19;;;;;;;47.45;22.92;;;230.80;2252.80;;;;;;5074959;28;20024;-73
2023/12/15 03:33:45;;;;;;;42.42;22.13;;;230.90;2252.80;;;;;;5074362;28;20045;-73
2023/12/15 03:36:10;;;;;;;;;;;231.00;2252.80;;;;;;5074177;28;20033;-74
2023/12/15 03:38:36;;;;;;;42.15;22.17;;;231.10;2252.80;;;;;;5075361;28;19910;-73
2023/12/15 03:41:02;;;;;;;48.60;22.58;;;231.10;2252.80;;;;;;5074839;28;20055;-73
2023/12/15 03:43:28;;;;;;;45.92;23.60;;;231.00;2252.80;;;;;;5073693;28;20028;-73
2023/12/15 03:45:53;;;;;;;;;;;231.00;2252.80;;;;;;5075071;28;20040;-73
2023/12/15 03:48:19;;;;;;;44.42;21.73;;;230.90;2252.80;;;;;;5074863;28;19911;-74
2023/12/15 03:50:45;;;;;;;41.95;22.67;;;231.00;2252.80;;;;;;5074727;28;20043;-73
2023/12/15 03:53:10;;;;;;;;;;;231.00;2252.80;;;;;;5075452;28;20020;-72
2023/12/15 03:55:36;;;;;;;42.80;21.55;;;231.10;2252.80;;;;;;5074758;28;19904;-73
2023/12/15 03:58:02;;;;;;;44.10;21.75;;;231.00;2252.80;;;;;;5074640;28;20096;-73
2023/12/15 04:00:28;;;;;;;44.40;22.65;;;230.90;2252.80;;;;;;5074360;28;20063;-73
2023/12/15 04:02:54;;;;;;;43.60;23.38;;;231.10;2252.80;;;;;;5074271;28;20017;-73
2023/12/15 04:05:20;;;;;;;40.10;21.70;;;231.10;2252.80;;;;;;5074286;28;20047;-73
2023/12/15 04:07:46;;;;;;;47.70;21.17;;;231.00;2252.80;;;;;;5074562;28;20023;-73
2023/12/15 04:10:12;;;;;;;45.95;24.45;;;231.00;2252.80;;;;;;5074217;28;20029;-73
2023/12/15 04:12:38;;;;;;;51.40;24.83;;;230.90;2252.80;;;;;;5074474;28;20470;-73
2023/12/15 04:15:04;;;;;;;;;;;231.00;2252.80;;;;;;5075750;28;20416;-73
2023/12/15 04:17:30;;;;;;;44.97;21.92;;;231.10;2252.80;;;;;;5074989;28;19961;-73
2023/12/15 04:19:56;;;;;;;49.25;24.75;;;231.20;2252.80;;;;;;5073974;28;20377;-73
2023/12/15 04:22:22;;;;;;;44.50;22.65;;;231.30;2252.80;;;;;;5074389;28;20035;-73
2023/12/15 04:24:49;;;;;;;40.78;23.23;;;231.30;2252.80;;;;;;5073764;28;20385;-74
2023/12/15 04:27:14;;;;;;;41.92;22.33;;;231.30;2252.80;;;;;;5074130;28;20013;-74
2023/12/15 04:29:40;;;;;;;43.92;20.73;;;231.20;2252.80;;;;;;5073830;28;20040;-74
2023/12/15 04:32:06;;;;;;;45.05;22.83;;;231.20;2252.80;;;;;;5073661;28;20486;-73
2023/12/15 04:34:33;;;;;;;46.42;22.33;;;231.10;2252.80;;;;;;5073605;28;20141;-73
2023/12/15 04:36:59;;;;;;;44.05;23.63;;;231.10;2252.80;;;;;;5073905;28;20020;-73
2023/12/15 04:39:25;;;;;;;39.13;21.35;;;231.10;2252.80;;;;;;5072601;28;20073;-73
2023/12/15 04:41:50;;;;;;;48.00;23.95;;;231.20;2252.80;;;;;;5073952;28;20066;-73
2023/12/15 04:44:16;;;;;;;;;;;231.20;2252.80;;;;;;5072687;28;20046;-73
2023/12/15 04:46:42;;;;;;;46.10;23.70;;;231.10;2252.80;;;;;;5073098;28;20020;-73
2023/12/15 04:49:07;;;;;;;;;;;231.20;2252.80;;;;;;5073913;28;20039;-73
2023/12/15 04:51:33;;;;;;;49.80;21.40;;;231.20;2252.80;;;;;;5073588;28;19905;-73
2023/12/15 04:53:59;;;;;;;;;;;231.10;2252.80;;;;;;5074013;28;20087;-73
2023/12/15 04:56:25;;;;;;;41.35;21.60;;;231.10;2252.80;;;;;;5073550;28;19905;-74
2023/12/15 04:58:51;;;;;;;39.85;20.75;;;231.10;2252.80;;;;;;5073390;28;20024;-73
2023/12/15 05:01:17;;;;;;;46.75;22.83;;;231.20;2252.80;;;;;;5073660;28;20458;-73
2023/12/15 05:03:44;;;;;;;42.28;22.08;;;231.30;2252.80;;;;;;5072978;28;20047;-73
2023/12/15 05:06:23;;;;;;;41.05;23.25;;;231.30;2252.80;;;;;;5073416;28;20035;-74
2023/12/15 05:08:53;;;;;;;62.67;29.80;;;256.00;2252.80;;;;;;5072957;28;20020;-73
2023/12/15 05:11:19;;;;;;;67.43;30.50;;;256.10;2252.80;;;;;;5073541;28;20024;-73
2023/12/15 05:13:45;;;;;;;75.93;32.75;;;256.10;2252.80;;;;;;5071951;28;20093;-74
2023/12/15 05:16:10;;;;;;;74.97;32.40;;;231.30;2252.80;;;;;;5072114;28;20095;-73
2023/12/15 05:18:36;;;;;;;;;;;256.00;2252.80;;;;;;5073403;28;20024;-73
2023/12/15 05:21:02;;;;;;;78.10;34.55;;;231.30;2252.80;;;;;;5073161;28;20253;-73
2023/12/15 05:23:28;;;;;;;76.68;34.78;;;256.00;2252.80;;;;;;5073146;28;20062;-73
2023/12/15 05:25:54;;;;;;;71.72;34.47;;;256.00;2252.80;;;;;;5073239;28;20416;-74
2023/12/15 05:28:20;;;;;;;;;;;256.00;2252.80;;;;;;5072230;28;20016;-73
2023/12/15 05:30:45;;;;;;;147.57;67.72;;;231.30;2252.80;;;;;;5073026;28;19951;-73
2023/12/15 05:33:11;;;;;;;151.73;70.45;;;231.20;2252.80;;;;;;5072591;28;20072;-74
2023/12/15 05:35:37;;;;;;;137.18;60.00;;;231.20;2252.80;;;;;;5073073;28;20507;-74
2023/12/15 05:38:02;;;;;;;;;;;231.10;2252.80;;;;;;5073272;28;20142;-74
2023/12/15 05:40:29;;;;;;;81.70;38.00;;;231.20;2252.80;;;;;;5073234;28;20397;-73
2023/12/15 05:42:55;;;;;;;103.85;48.60;;;231.10;2252.80;;;;;;5073007;28;20100;-73
2023/12/15 05:45:20;;;;;;;103.93;50.63;;;231.20;2252.80;;;;;;5072897;28;20123;-73
2023/12/15 05:47:47;;;;;;;110.03;51.85;;;231.20;2252.80;;;;;;5072841;28;20017;-74
2023/12/15 05:50:13;;;;;;;68.15;34.92;;;231.10;2252.80;;;;;;5072970;28;20025;-73
2023/12/15 05:52:39;;;;;;;63.67;32.58;;;231.20;2252.80;;;;;;5072839;28;20095;-74
2023/12/15 05:55:04;;;;;;;;;;;231.20;2252.80;;;;;;5073299;28;20027;-74
2023/12/15 05:57:30;;;;;;;41.10;20.77;;;231.20;2252.80;;;;;;5075087;28;19915;-73
2023/12/15 05:59:56;;;;;;;;;;;231.20;2252.80;;;;;;5077380;28;20024;-74
2023/12/15 06:02:21;;;;;;;37.33;21.90;;;231.20;2252.80;;;;;;5076389;28;19922;-74
2023/12/15 06:04:47;;;;;;;49.85;24.42;;;231.10;2252.80;;;;;;5070044;28;20139;-74
2023/12/15 06:07:13;;;;;;;;;;;231.10;2252.80;;;;;;5071340;28;20074;-73
2023/12/15 06:09:38;;;;;;;45.95;23.88;;;230.80;2252.80;;;;;;5065743;28;19908;-74
2023/12/15 06:12:04;;;;;;;;;;;230.60;2252.80;;;;;;5071606;28;20029;-73
2023/12/15 06:14:30;;;;;;;38.33;22.55;;;230.50;2252.80;;;;;;5071531;28;19935;-72
2023/12/15 06:16:56;;;;;;;47.92;25.33;;;230.60;2252.80;;;;;;5082929;28;20482;-75
2023/12/15 06:19:23;;;;;;;;;;;230.60;2252.80;;;;;;5087759;28;20127;-73
2023/12/15 06:21:49;;;;;;;44.88;24.60;;;230.70;2252.80;;;;;;5072189;28;19982;-73
2023/12/15 06:24:14;;;;;;;49.90;26.05;;;230.70;2252.80;;;;;;5072963;28;20104;-72
2023/12/15 06:26:40;;;;;;;;;;;230.70;2252.80;;;;;;5063097;28;20040;-71
2023/12/15 06:29:06;;;;;;;47.85;24.58;;;230.80;2252.80;;;;;;5069138;28;19908;-72
2023/12/15 06:31:31;;;;;;;;;;;230.60;2252.80;;;;;;5079571;28;20028;-73
2023/12/15 06:33:57;;;;;;;38.28;21.77;;;230.70;2252.80;;;;;;5072811;28;20007;-72
2023/12/15 06:36:22;;;;;;;42.08;24.35;;;230.70;2252.80;;;;;;5073274;28;20112;-73
2023/12/15 06:38:48;;;;;;;41.92;23.85;;;230.70;2252.80;;;;;;5080736;28;20103;-74
2023/12/15 06:41:14;;;;;;;;;;;230.80;2252.80;;;;;;5072512;28;20025;-73
2023/12/15 06:43:44;;;;;;;39.45;22.08;;;230.70;2252.80;;;;;;5064858;28;20238;-73
2023/12/15 06:46:11;;;;;;;48.30;25.20;;;230.70;2252.80;;;;;;5066373;28;20417;-73
2023/12/15 06:48:37;;;;;;;42.80;23.17;;;230.70;2252.80;;;;;;5080706;28;20048;-74
2023/12/15 06:51:04;;;;;;;49.97;25.83;;;230.80;2252.80;;;;;;5073391;28;20418;-73
2023/12/15 06:53:30;;;;;;;50.92;27.48;;;230.70;2252.80;;;;;;5077053;28;20528;-73
2023/12/15 06:55:55;;;;;;;46.90;25.48;;;230.70;2252.80;;;;;;5069421;28;20025;-75
2023/12/15 06:58:21;;;;;;;43.08;25.48;;;230.90;2252.80;;;;;;5087336;28;20028;-74
2023/12/15 07:00:47;;;;;;;53.45;29.35;;;230.90;2252.80;;;;;;5070597;28;20020;-74
2023/12/15 07:03:12;;;;;;;;;;;230.90;2252.80;;;;;;5080156;28;20036;-73
2023/12/15 07:05:38;;;;;;;54.67;29.25;;;230.80;2252.80;;;;;;5076829;28;19971;-74
2023/12/15 07:08:04;;;;;;;;;;;230.80;2252.80;;;;;;5072953;28;20033;-74
2023/12/15 07:10:30;;;;;;;70.82;34.00;;;230.90;2252.80;;;;;;5063756;28;19912;-73
2023/12/15 07:12:56;;;;;;;85.45;43.17;;;230.80;2252.80;;;;;;5070914;28;20035;-74
2023/12/15 07:15:21;;;;;;;;;;;230.90;2252.80;;;;;;5067381;28;20025;-73
2023/12/15 07:17:48;;;;;;;113.63;62.23;;;230.80;2252.80;;;;;;5066345;28;20007;-73
2023/12/15 07:20:13;;;;;;;64.18;36.13;;;230.90;2252.80;;;;;;5073160;28;20013;-72
2023/12/15 07:22:39;;;;;;;56.75;30.02;;;230.90;2252.80;;;;;;5058896;28;20044;-72
2023/12/15 07:25:05;;;;;;;;;;;230.90;2252.80;;;;;;5074004;28;20028;-72
2023/12/15 07:27:30;;;;;;;51.30;27.65;;;230.90;2252.80;;;;;;5070582;28;20011;-73
2023/12/15 07:29:56;;;;;;;;;;;230.90;2252.80;;;;;;5070182;28;20021;-73
2023/12/15 07:32:22;;;;;;;51.15;27.40;;;230.70;2252.80;;;;;;5070094;28;19924;-72
2023/12/15 07:34:47;;;;;;;60.47;29.83;;;230.60;2252.80;;;;;;5079320;28;20039;-72
2023/12/15 07:37:13;;;;;;;58.85;29.00;;;230.60;2252.80;;;;;;5078621;28;20028;-72
2023/12/15 07:39:39;;;;;;;61.58;30.38;;;230.60;2252.80;;;;;;5079209;28;20028;-73
2023/12/15 07:42:05;;;;;;;62.53;32.50;;;230.60;2252.80;;;;;;5071215;28;20061;-74
2023/12/15 07:44:30;;;;;;;;;;;230.70;2252.80;;;;;;5072621;28;20054;-74
2023/12/15 07:46:56;;;;;;;59.38;30.45;;;230.60;2252.80;;;;;;5075114;28;20385;-74
2023/12/15 07:49:22;;;;;;;;;;;230.70;2252.80;;;;;;5078744;28;20038;-73
2023/12/15 07:51:49;;;;;;;60.83;31.58;;;230.70;2252.80;;;;;;5073160;28;19915;-73
2023/12/15 07:54:15;;;;;;;61.67;33.47;;;230.80;2252.80;;;;;;5084323;28;20107;-72
2023/12/15 07:56:41;;;;;;;74.65;38.35;;;230.60;2252.80;;;;;;5077400;28;20020;-72
2023/12/15 07:59:07;;;;;;;76.70;39.85;;;230.70;2252.80;;;;;;5073392;28;20054;-72
2023/12/15 08:01:34;;;;;;;69.80;34.28;;;230.70;2252.80;;;;;;5065149;28;20120;-72
2023/12/15 08:03:59;;;;;;;62.60;33.70;;;230.60;2252.80;;;;;;5080483;28;20457;-72
2023/12/15 08:06:25;;;;;;;66.50;36.15;;;230.60;2252.80;;;;;;5065318;28;20040;-71
2023/12/15 08:08:52;;;;;;;;;;;230.60;2252.80;;;;;;5073566;28;20067;-73
2023/12/15 08:11:18;;;;;;;63.38;32.95;;;230.60;2252.80;;;;;;5065593;28;19961;-72
2023/12/15 08:13:44;;;;;;;62.85;32.90;;;230.50;2252.80;;;;;;5071897;28;20028;-72
2023/12/15 08:16:11;;;;;;;64.28;34.45;;;230.80;2252.80;;;;;;5073107;28;20024;-73
2023/12/15 08:18:37;;;;;;;66.80;32.03;;;230.80;2252.80;;;;;;5076318;28;20025;-72
2023/12/15 08:21:03;;;;;;;61.67;31.63;;;230.70;2252.80;;;;;;5068474;28;20020;-73
2023/12/15 08:23:29;;;;;;;72.28;32.53;;;230.80;2252.80;;;;;;5072890;28;20020;-76
2023/12/15 08:25:55;;;;;;;63.53;35.08;;;230.90;2252.80;;;;;;5073898;28;20042;-74
2023/12/15 08:28:20;;;;;;;;;;;231.00;2252.80;;;;;;5086942;28;20023;-74
2023/12/15 08:30:50;;;;;;;64.75;31.30;;;231.00;2252.80;;;;;;5070895;28;19904;-74
2023/12/15 08:33:16;;;;;;;67.55;33.00;;;231.00;2252.80;;;;;;5079134;28;20052;-74
2023/12/15 08:35:42;;;;;;;59.47;30.10;;;230.90;2252.80;;;;;;5077109;28;20052;-75
2023/12/15 08:38:07;;;;;;;64.82;31.73;;;230.90;2252.80;;;;;;5075235;28;20521;-75
2023/12/15 08:40:33;;;;;;;;;;;230.90;2252.80;;;;;;5078111;28;20393;-74
2023/12/15 08:42:59;;;;;;;61.35;31.40;;;230.70;2252.80;;;;;;5068500;28;20340;-75
2023/12/15 08:45:25;;;;;;;66.00;33.45;;;230.60;2252.80;;;;;;5072934;28;20530;-74
2023/12/15 08:47:50;;;;;;;65.13;34.33;;;230.60;2252.80;;;;;;5075193;28;20021;-74
2023/12/15 08:50:16;;;;;;;;;;;230.80;2252.80;;;;;;5076949;28;20120;-76
2023/12/15 08:52:43;;;;;;;60.55;31.70;;;230.80;2252.80;;;;;;5073386;28;19908;-75
2023/12/15 08:55:09;;;;;;;69.70;34.55;;;230.80;2252.80;;;;;;5075406;28;20029;-74
2023/12/15 08:57:35;;;;;;;63.03;29.58;;;230.90;2252.80;;;;;;5080605;28;20076;-73
2023/12/15 09:00:03;;;;;;;51.83;27.70;;;230.80;2252.80;;;;;;5077123;28;20024;-76
2023/12/15 09:02:29;;;;;;;62.45;32.25;;;230.90;2252.80;;;;;;5082116;28;20025;-75
2023/12/15 09:04:54;;;;;;;55.33;29.23;;;231.00;2252.80;;;;;;5073698;28;20093;-75
2023/12/15 09:07:20;;;;;;;;;;;230.90;2252.80;;;;;;5068268;28;20039;-75
2023/12/15 09:09:46;;;;;;;59.42;30.27;;;231.00;2252.80;;;;;;5072073;28;19915;-76
2023/12/15 09:12:11;;;;;;;;;;;231.10;2252.80;;;;;;5066105;28;20488;-77
2023/12/15 09:14:38;;;;;;;58.55;31.13;;;231.00;2252.80;;;;;;5075990;28;20422;-76
2023/12/15 09:17:05;;;;;;;73.63;34.38;;;231.10;2252.80;;;;;;5065818;28;20036;-77
2023/12/15 09:19:31;;;;;;;66.13;31.08;;;231.20;2252.80;;;;;;5074116;28;20125;-76
2023/12/15 09:21:57;;;;;;;55.03;27.63;;;231.30;2252.80;;;;;;5078483;28;20060;-75
2023/12/15 09:24:23;;;;;;;59.53;30.60;;;231.10;2252.80;;;;;;5077152;28;20072;-75
2023/12/15 09:26:48;;;;;;;;;;;231.20;2252.80;;;;;;5065936;28;20024;-75
2023/12/15 09:29:15;;;;;;;57.53;27.70;;;231.10;2252.80;;;;;;5073149;28;20003;-75
2023/12/15 09:31:42;;;;;;;70.15;30.83;;;231.10;2252.80;;;;;;5082837;28;20062;-75
2023/12/15 09:34:08;;;;;;;74.00;33.03;;;231.00;2252.80;;;;;;5074770;28;20041;-75
2023/12/15 09:36:34;;;;;;;72.85;34.70;;;231.00;2252.80;;;;;;5075055;28;20401;-75
2023/12/15 09:39:00;;;;;;;67.22;31.20;;;231.20;2252.80;;;;;;5069854;28;20374;-74
2023/12/15 09:41:27;;;;;;;72.65;34.97;;;231.20;2252.80;;;;;;5071305;28;20025;-74
2023/12/15 09:43:53;;;;;;;72.35;33.33;;;231.20;2252.80;;;;;;5069118;28;20021;-75
2023/12/15 09:46:20;;;;;;;83.22;41.13;;;256.00;2252.80;;;;;;5087830;28;20028;-74
2023/12/15 09:48:47;;;;;;;71.75;35.80;;;256.10;2252.80;;;;;;5075538;28;20024;-75
2023/12/15 09:51:22;;;;;;;70.90;34.20;;;256.10;2252.80;;;;;;5064370;28;20103;-74
2023/12/15 09:53:49;;;;;;;63.33;27.38;;;256.00;2252.80;;;;;;5072508;28;20036;-75
2023/12/15 09:56:15;;;;;;;62.85;30.23;;;231.30;2252.80;;;;;;5075129;28;20420;-74
2023/12/15 09:58:41;;;;;;;66.82;32.03;;;231.20;2252.80;;;;;;5071503;28;20039;-75
2023/12/15 10:01:07;;;;;;;63.72;31.52;;;231.30;2252.80;;;;;;5071029;28;20012;-75
2023/12/15 10:03:32;;;;;;;;;;;256.30;2252.80;;;;;;5080550;28;20021;-75
2023/12/15 10:05:58;;;;;;;59.88;27.88;;;256.50;2252.80;;;;;;5070410;28;19960;-75
2023/12/15 10:08:24;;;;;;;65.88;31.65;;;256.40;2252.80;;;;;;5075402;28;20028;-74
2023/12/15 10:10:50;;;;;;;;;;;256.50;2252.80;;;;;;5069577;28;20050;-74
2023/12/15 10:13:16;;;;;;;67.57;30.37;;;256.40;2252.80;;;;;;5072253;28;19908;-74
2023/12/15 10:15:41;;;;;;;;;;;256.30;2252.80;;;;;;5070520;28;20405;-74
2023/12/15 10:18:07;;;;;;;56.88;26.05;;;256.30;2252.80;;;;;;5072675;28;20003;-75
2023/12/15 10:20:33;;;;;;;55.97;26.95;;;256.20;2252.80;;;;;;5068926;28;20028;-75
2023/12/15 10:23:04;;;;;;;61.78;30.48;;;256.10;2252.80;;;;;;5079366;28;20024;-74
2023/12/15 10:25:33;;;;;;;76.95;33.58;;;256.20;2252.80;;;;;;5072328;28;20041;-75
2023/12/15 10:27:59;;;;;;;83.68;36.70;;;256.00;2252.80;;;;;;5081896;28;20465;-75
2023/12/15 10:30:26;;;;;;;74.15;34.83;;;231.30;2252.80;;;;;;5071465;28;20049;-76
2023/12/15 10:32:56;;;;;;;76.28;35.42;;;231.30;2252.80;;;;;;5080766;28;20024;-75
2023/12/15 10:35:22;;;;;;;77.30;32.63;;;231.30;2252.80;;;;;;5061435;28;20162;-74
2023/12/15 10:37:48;;;;;;;66.72;28.65;;;231.30;2252.80;;;;;;5064789;28;20031;-74
2023/12/15 10:40:15;;;;;;;65.38;30.40;;;231.20;2252.80;;;;;;5075642;28;20028;-76
2023/12/15 10:42:41;;;;;;;62.03;29.60;;;231.00;2252.80;;;;;;5066515;28;20054;-74
2023/12/15 10:45:08;;;;;;;60.92;30.10;;;231.00;2252.80;;;;;;5078188;28;20081;-75
2023/12/15 10:47:35;;;;;;;58.47;28.20;;;231.10;2252.80;;;;;;5072273;28;20026;-74
2023/12/15 10:50:07;;;;;;;57.90;26.52;;;230.90;2252.80;;;;;;5080372;28;20444;-75
2023/12/15 10:52:35;;;;;;;60.80;26.75;;;230.80;2252.80;;;;;;5073363;28;20021;-76
2023/12/15 10:55:04;;;;;;;99.28;48.63;;;230.90;2252.80;;;;;;5075598;28;20082;-75
2023/12/15 10:57:32;;;;;;;66.50;34.20;;;231.00;2252.80;;;;;;5080722;28;20404;-74
2023/12/15 11:00:00;;;;;;;65.00;29.58;;;231.10;2252.80;;;;;;5074832;28;20040;-74
2023/12/15 11:02:28;;;;;;;59.97;28.50;;;231.10;2252.80;;;;;;5076478;28;20359;-74
2023/12/15 11:04:58;;;;;;;53.92;28.77;;;230.90;2252.80;;;;;;5081590;28;20067;-74
2023/12/15 11:07:24;;;;;;;54.95;28.63;;;231.10;2252.80;;;;;;5070993;28;20028;-74
2023/12/15 11:09:51;;;;;;;58.20;27.35;;;231.10;2252.80;;;;;;5073351;28;20024;-75
2023/12/15 11:12:22;;;;;;;55.17;28.63;;;231.00;2252.80;;;;;;5074210;28;20052;-75
2023/12/15 11:14:57;;;;;;;55.45;26.98;;;231.00;2252.80;;;;;;5077422;28;20483;-75
2023/12/15 11:17:23;;;;;;;55.35;28.13;;;231.10;2252.80;;;;;;5067601;28;20086;-74
2023/12/15 11:19:53;;;;;;;55.20;27.40;;;231.30;2252.80;;;;;;5065789;28;20478;-74
2023/12/15 11:22:20;;;;;;;58.85;28.23;;;256.00;2252.80;;;;;;5078225;28;20028;-75
2023/12/15 11:24:46;;;;;;;54.08;26.17;;;256.20;2252.80;;;;;;5072752;28;20126;-74
2023/12/15 11:27:15;;;;;;;54.03;27.60;;;256.20;2252.80;;;;;;5095466;28;20028;-74
2023/12/15 11:29:41;;;;;;;49.92;25.45;;;256.50;2252.80;;;;;;5069671;28;20060;-74
2023/12/15 11:32:35;;;;;;;56.13;27.48;;;256.20;2252.80;;;;;;5064081;28;20109;-74
2023/12/15 11:35:01;;;;;;;51.05;24.52;;;256.20;2252.80;;;;;;5074222;28;20550;-74
2023/12/15 11:37:28;;;;;;;51.60;25.88;;;256.20;2252.80;;;;;;5074972;28;20382;-74
2023/12/15 11:39:55;;;;;;;50.28;24.17;;;256.10;2252.80;;;;;;5077100;28;20028;-74
2023/12/15 11:42:23;;;;;;;52.88;24.25;;;256.30;2252.80;;;;;;5068831;28;20103;-74
2023/12/15 11:44:49;;;;;;;57.15;25.83;;;256.20;2252.80;;;;;;5070809;28;20126;-74
2023/12/15 11:47:14;;;;;;;55.63;26.63;;;256.10;2252.80;;;;;;5076730;28;20021;-74
2023/12/15 11:49:42;;;;;;;50.60;27.33;;;256.20;2252.80;;;;;;5076753;28;20116;-74
2023/12/15 11:52:12;;;;;;;52.50;28.15;;;256.20;2252.80;;;;;;5076620;28;20017;-75
2023/12/15 11:54:41;;;;;;;47.35;25.35;;;256.10;2252.80;;;;;;5078090;28;20021;-74
2023/12/15 11:57:07;;;;;;;58.35;26.83;;;256.10;2252.80;;;;;;5079507;28;20048;-74
2023/12/15 11:59:39;;;;;;;57.80;27.67;;;256.20;2252.80;;;;;;5080440;28;20105;-74
2023/12/15 12:02:05;;;;;;;55.20;27.48;;;256.20;2252.80;;;;;;5076664;28;20466;-74
2023/12/15 12:04:31;;;;;;;51.45;26.98;;;256.40;2252.80;;;;;;5076320;28;20037;-74
2023/12/15 12:06:58;;;;;;;53.85;26.02;;;256.20;2252.80;;;;;;5072566;28;20037;-74
2023/12/15 12:09:24;;;;;;;57.35;28.02;;;256.10;2252.80;;;;;;5076530;28;20393;-74
2023/12/15 12:11:55;;;;;;;51.83;24.23;;;256.20;2252.80;;;;;;5061684;28;20059;-74